Time;durP1;ratioP1;P1;durP2;ratioP2;P2;SDS_P1;SDS_P2;PMS_P1;PMS_P2;Temp;Humidity;BMP_temperature;BMP_pressure;BME280_temperature;BME280_humidity;BME280_pressure;Samples;Min_cycle;Max_cycle;Signal;HPM_P1;HPM_P2
2023/12/15 00:00:31;;;;;;;11.80;9.03;;;3.50;99.90;;;;;;5029522;28;20199;-57
2023/12/15 00:02:57;;;;;;;11.13;7.80;;;3.50;99.90;;;;;;5029224;28;20565;-58
2023/12/15 00:05:22;;;;;;;10.90;8.37;;;3.50;99.90;;;;;;5031632;28;20186;-57
2023/12/15 00:07:48;;;;;;;12.70;9.53;;;3.50;99.90;;;;;;5029431;28;20198;-58
2023/12/15 00:10:14;;;;;;;13.10;8.50;;;3.50;99.90;;;;;;5032583;28;20187;-57
2023/12/15 00:12:39;;;;;;;14.47;9.23;;;3.40;99.90;;;;;;5035788;28;20199;-58
2023/12/15 00:15:06;;;;;;;13.00;9.30;;;3.30;99.90;;;;;;5035564;28;20183;-58
2023/12/15 00:17:31;;;;;;;10.70;8.50;;;3.30;99.90;;;;;;5032921;28;20418;-58
2023/12/15 00:19:57;;;;;;;11.83;8.93;;;3.30;99.90;;;;;;5032777;28;20606;-59
2023/12/15 00:22:23;;;;;;;14.37;9.20;;;3.40;99.90;;;;;;5032505;28;20203;-61
2023/12/15 00:24:48;;;;;;;10.67;7.57;;;3.40;99.90;;;;;;5032809;28;20171;-55
2023/12/15 00:27:14;;;;;;;13.17;7.77;;;3.30;99.90;;;;;;5043216;28;20171;-58
2023/12/15 00:29:40;;;;;;;11.43;8.30;;;3.30;99.90;;;;;;5040576;28;20305;-55
2023/12/15 00:32:05;;;;;;;14.50;9.10;;;3.30;99.90;;;;;;5040951;28;20261;-55
2023/12/15 00:34:31;;;;;;;11.00;8.13;;;3.30;99.90;;;;;;5032632;28;20422;-58
2023/12/15 00:36:56;;;;;;;16.07;8.10;;;3.30;99.90;;;;;;5032796;28;20187;-55
2023/12/15 00:39:22;;;;;;;14.03;8.13;;;3.30;99.90;;;;;;5033019;28;20203;-52
2023/12/15 00:41:47;;;;;;;11.07;8.17;;;3.40;99.90;;;;;;5039331;28;20192;-53
2023/12/15 00:44:13;;;;;;;12.50;8.23;;;3.40;99.90;;;;;;5041710;28;20548;-59
2023/12/15 00:46:39;;;;;;;12.23;9.37;;;3.50;99.90;;;;;;5051517;28;20809;-54
2023/12/15 00:49:04;;;;;;;11.07;8.27;;;3.50;99.90;;;;;;5035286;28;20207;-50
2023/12/15 00:51:30;;;;;;;11.83;8.40;;;3.50;99.90;;;;;;5034057;28;20203;-51
2023/12/15 00:53:55;;;;;;;11.10;8.00;;;3.50;99.90;;;;;;5049746;28;20167;-58
2023/12/15 00:56:21;;;;;;;15.03;8.50;;;3.50;99.90;;;;;;5034498;28;20171;-58
2023/12/15 00:58:47;;;;;;;11.53;8.60;;;3.50;99.90;;;;;;5039457;28;20175;-59
2023/12/15 01:01:12;;;;;;;13.87;8.73;;;3.50;99.90;;;;;;5032755;28;20172;-57
2023/12/15 01:03:38;;;;;;;12.00;8.97;;;3.50;99.90;;;;;;5032559;28;20636;-57
2023/12/15 01:06:04;;;;;;;12.30;8.50;;;3.50;99.90;;;;;;5028468;28;20168;-60
2023/12/15 01:08:29;;;;;;;13.27;9.00;;;3.50;99.90;;;;;;5036800;28;20179;-55
2023/12/15 01:10:55;;;;;;;14.00;8.33;;;3.40;99.90;;;;;;5037844;28;20187;-55
2023/12/15 01:13:20;;;;;;;11.70;8.40;;;3.40;99.90;;;;;;5033425;28;20194;-54
2023/12/15 01:15:46;;;;;;;9.10;7.87;;;3.40;99.90;;;;;;5032481;28;20187;-56
2023/12/15 01:18:11;;;;;;;12.43;8.60;;;3.40;99.90;;;;;;5028696;28;20178;-56
2023/12/15 01:20:37;;;;;;;10.50;8.10;;;3.40;99.90;;;;;;5031497;28;20565;-56
2023/12/15 01:23:03;;;;;;;13.90;9.03;;;3.50;99.90;;;;;;5037669;28;20190;-56
2023/12/15 01:25:29;;;;;;;13.80;9.30;;;3.50;99.90;;;;;;5046343;28;20226;-57
2023/12/15 01:27:54;;;;;;;11.80;9.60;;;3.50;99.90;;;;;;5040782;28;20414;-57
2023/12/15 01:30:20;;;;;;;11.40;9.27;;;3.50;99.90;;;;;;5031448;28;20222;-59
2023/12/15 01:32:46;;;;;;;9.73;8.63;;;3.40;99.90;;;;;;5031444;28;20191;-56
2023/12/15 01:35:11;;;;;;;14.23;8.43;;;3.40;99.90;;;;;;5030280;28;20195;-59
2023/12/15 01:37:37;;;;;;;14.43;9.17;;;3.40;99.90;;;;;;5023176;28;20176;-59
2023/12/15 01:40:02;;;;;;;11.70;8.23;;;3.40;99.90;;;;;;5031668;28;20313;-61
2023/12/15 01:42:28;;;;;;;12.57;8.73;;;3.50;99.90;;;;;;5042750;28;20195;-57
2023/12/15 01:44:54;;;;;;;11.13;8.70;;;3.50;99.90;;;;;;5035746;28;20170;-58
2023/12/15 01:47:21;;;;;;;12.17;8.13;;;3.50;99.90;;;;;;5033489;28;20176;-57
2023/12/15 01:49:47;;;;;;;9.20;6.67;;;3.40;99.90;;;;;;5044479;28;20181;-60
2023/12/15 01:52:13;;;;;;;15.60;8.67;;;3.30;99.90;;;;;;5035070;28;20529;-60
2023/12/15 01:54:38;;;;;;;9.87;7.30;;;3.30;99.90;;;;;;5025897;28;21052;-59
2023/12/15 01:57:06;;;;;;;10.70;7.33;;;3.40;99.90;;;;;;5031200;28;20414;-59
2023/12/15 01:59:45;;;;;;;11.50;7.47;;;3.30;99.90;;;;;;5029510;28;20670;-57
2023/12/15 02:02:11;;;;;;;11.73;7.20;;;3.30;99.90;;;;;;5037506;28;20445;-60
2023/12/15 02:04:37;;;;;;;10.87;7.13;;;3.20;99.90;;;;;;5030853;28;20437;-55
2023/12/15 02:07:03;;;;;;;10.60;7.57;;;3.20;99.90;;;;;;5030939;28;20180;-60
2023/12/15 02:09:29;;;;;;;10.47;7.83;;;3.20;99.90;;;;;;5043776;28;20428;-57
2023/12/15 02:11:54;;;;;;;8.80;7.07;;;3.20;99.90;;;;;;5029165;28;20813;-55
2023/12/15 02:14:20;;;;;;;9.63;6.43;;;3.10;99.90;;;;;;5034654;28;20611;-57
2023/12/15 02:16:45;;;;;;;11.57;7.90;;;3.00;99.90;;;;;;5030355;28;20176;-57
2023/12/15 02:19:11;;;;;;;10.03;7.27;;;2.90;99.90;;;;;;5030558;28;20217;-57
2023/12/15 02:21:36;;;;;;;9.00;6.77;;;2.80;99.90;;;;;;5030417;28;20253;-54
2023/12/15 02:24:02;;;;;;;11.27;7.43;;;2.70;99.90;;;;;;5029702;28;20219;-55
2023/12/15 02:26:28;;;;;;;9.37;7.17;;;2.70;99.90;;;;;;5034483;28;20226;-56
2023/12/15 02:28:53;;;;;;;8.70;6.37;;;2.60;99.90;;;;;;5034147;28;20441;-57
2023/12/15 02:31:21;;;;;;;12.50;7.37;;;2.60;99.90;;;;;;5029954;28;20614;-56
2023/12/15 02:33:47;;;;;;;10.73;7.40;;;2.50;99.90;;;;;;5038416;28;20171;-57
2023/12/15 02:36:20;;;;;;;8.63;7.07;;;2.40;99.90;;;;;;5036997;28;20417;-56
2023/12/15 02:38:46;;;;;;;9.63;6.80;;;2.30;99.90;;;;;;5031698;28;20183;-58
2023/12/15 02:41:12;;;;;;;13.10;7.27;;;2.30;99.90;;;;;;5020833;28;20473;-58
2023/12/15 02:43:38;;;;;;;9.77;6.43;;;2.30;99.90;;;;;;5030175;28;20426;-56
2023/12/15 02:46:05;;;;;;;10.47;6.13;;;2.30;99.90;;;;;;5030390;28;20179;-57
2023/12/15 02:48:30;;;;;;;10.13;7.00;;;2.30;99.90;;;;;;5029736;28;20756;-59
2023/12/15 02:50:56;;;;;;;7.37;6.13;;;2.20;99.90;;;;;;5038145;28;20418;-57
2023/12/15 02:53:21;;;;;;;12.93;6.77;;;2.10;99.90;;;;;;5031613;28;20461;-57
2023/12/15 02:55:47;;;;;;;10.30;6.70;;;2.00;99.90;;;;;;5029963;28;20209;-53
2023/12/15 02:58:13;;;;;;;9.17;6.93;;;2.10;99.90;;;;;;5029365;28;20210;-61
2023/12/15 03:00:38;;;;;;;10.03;7.20;;;2.10;99.90;;;;;;5048200;22;20220;-59
2023/12/15 03:03:04;;;;;;;9.93;7.20;;;2.00;99.90;;;;;;5030149;28;20178;-56
2023/12/15 03:05:30;;;;;;;9.87;7.10;;;2.00;99.90;;;;;;5043247;28;20209;-58
2023/12/15 03:07:56;;;;;;;11.43;7.67;;;2.10;99.90;;;;;;5040491;28;20707;-55
2023/12/15 03:10:21;;;;;;;11.30;6.70;;;2.00;99.90;;;;;;5027464;28;20666;-59
2023/12/15 03:12:47;;;;;;;11.60;7.63;;;1.90;99.90;;;;;;5023748;28;20996;-60
2023/12/15 03:15:12;;;;;;;10.53;6.60;;;1.90;99.90;;;;;;5029228;28;20183;-59
2023/12/15 03:17:38;;;;;;;10.87;7.60;;;1.80;99.90;;;;;;5016370;28;20188;-55
2023/12/15 03:20:06;;;;;;;9.93;6.73;;;1.80;99.90;;;;;;5011905;28;21793;-58
2023/12/15 03:22:32;;;;;;;19.23;8.87;;;1.80;99.90;;;;;;5024549;28;20261;-51
2023/12/15 03:24:57;;;;;;;11.47;8.23;;;1.90;99.90;;;;;;5017022;28;20897;-58
2023/12/15 03:27:23;;;;;;;10.60;7.00;;;1.80;99.90;;;;;;5022679;28;20425;-56
2023/12/15 03:29:49;;;;;;;10.87;7.20;;;1.70;99.90;;;;;;5019608;28;20227;-60
2023/12/15 03:32:15;;;;;;;14.70;7.50;;;1.70;99.90;;;;;;5025296;28;20218;-60
2023/12/15 03:34:40;;;;;;;7.97;7.17;;;1.70;99.90;;;;;;5023924;28;20864;-55
2023/12/15 03:37:06;;;;;;;11.03;8.00;;;1.70;99.90;;;;;;5016715;28;20176;-55
2023/12/15 03:39:31;;;;;;;10.10;8.53;;;1.70;99.90;;;;;;5022752;28;20274;-57
2023/12/15 03:41:57;;;;;;;12.00;7.57;;;1.60;99.90;;;;;;5024013;28;20168;-60
2023/12/15 03:44:22;;;;;;;9.40;7.50;;;1.60;99.90;;;;;;5031907;28;20657;-59
2023/12/15 03:46:48;;;;;;;8.83;6.70;;;1.50;99.90;;;;;;5024306;28;20176;-57
2023/12/15 03:49:14;;;;;;;13.17;7.90;;;1.50;99.90;;;;;;5034477;28;20182;-60
2023/12/15 03:51:39;;;;;;;11.93;8.73;;;1.50;99.90;;;;;;5017750;28;20706;-59
2023/12/15 03:54:05;;;;;;;12.67;9.90;;;1.70;99.90;;;;;;5020341;28;20184;-54
2023/12/15 03:56:31;;;;;;;13.93;9.20;;;1.50;99.90;;;;;;5025349;28;20179;-60
2023/12/15 03:58:57;;;;;;;15.80;9.30;;;1.50;99.90;;;;;;5027749;28;20172;-57
2023/12/15 04:01:22;;;;;;;12.33;7.77;;;1.40;99.90;;;;;;5030515;28;21023;-56
2023/12/15 04:03:48;;;;;;;12.20;8.00;;;1.40;99.90;;;;;;5031422;28;20180;-58
2023/12/15 04:06:14;;;;;;;13.83;9.43;;;1.30;99.90;;;;;;5029365;28;20203;-58
2023/12/15 04:08:41;;;;;;;11.50;8.70;;;1.30;99.90;;;;;;5023052;28;20176;-55
2023/12/15 04:11:07;;;;;;;17.73;10.20;;;1.30;99.90;;;;;;5031662;28;20196;-58
2023/12/15 04:13:33;;;;;;;14.90;9.83;;;1.50;99.90;;;;;;5023321;28;20426;-53
2023/12/15 04:15:58;;;;;;;15.83;10.70;;;1.50;99.90;;;;;;5030198;28;20171;-57
2023/12/15 04:18:24;;;;;;;15.60;11.07;;;1.50;99.90;;;;;;5025989;28;20551;-60
2023/12/15 04:20:49;;;;;;;16.50;10.53;;;1.50;99.90;;;;;;5025543;28;20349;-58
2023/12/15 04:23:15;;;;;;;18.87;11.27;;;1.50;99.90;;;;;;5015306;28;20211;-59
2023/12/15 04:25:40;;;;;;;19.47;12.77;;;1.50;99.90;;;;;;5031188;28;20485;-57
2023/12/15 04:28:06;;;;;;;19.67;10.23;;;1.50;99.90;;;;;;5015169;28;20165;-59
2023/12/15 04:30:32;;;;;;;15.23;10.87;;;1.50;99.90;;;;;;5027027;28;20274;-56
2023/12/15 04:32:57;;;;;;;16.60;11.20;;;1.50;99.90;;;;;;5022520;28;20179;-58
2023/12/15 04:35:23;;;;;;;17.23;11.57;;;1.50;99.90;;;;;;5019826;28;20172;-57
2023/12/15 04:37:49;;;;;;;20.97;12.50;;;1.50;99.90;;;;;;5024863;28;20180;-58
2023/12/15 04:40:14;;;;;;;17.50;11.53;;;1.50;99.90;;;;;;5025709;28;20813;-58
2023/12/15 04:42:40;;;;;;;23.77;12.53;;;1.60;99.90;;;;;;5027435;28;20669;-56
2023/12/15 04:45:09;;;;;;;20.50;13.93;;;1.60;99.90;;;;;;5027260;28;20174;-53
2023/12/15 04:47:35;;;;;;;22.57;13.50;;;1.60;99.90;;;;;;5028833;28;20927;-59
2023/12/15 04:50:02;;;;;;;16.57;11.80;;;1.60;99.90;;;;;;5027538;28;20526;-57
2023/12/15 04:52:27;;;;;;;23.40;12.37;;;1.60;99.90;;;;;;5033222;28;20769;-57
2023/12/15 04:54:53;;;;;;;26.10;12.27;;;1.70;99.90;;;;;;5016513;28;20424;-61
2023/12/15 04:57:18;;;;;;;24.23;11.87;;;1.70;99.90;;;;;;5020375;28;20206;-61
2023/12/15 04:59:44;;;;;;;19.30;12.20;;;1.60;99.90;;;;;;5020308;28;20192;-57
2023/12/15 05:02:09;;;;;;;26.80;11.97;;;1.50;99.90;;;;;;5026541;28;20226;-53
2023/12/15 05:04:35;;;;;;;19.77;11.57;;;1.60;99.90;;;;;;5032239;28;20226;-55
2023/12/15 05:07:02;;;;;;;17.70;10.90;;;1.50;99.90;;;;;;5027423;28;20526;-59
2023/12/15 05:09:33;;;;;;;22.40;12.60;;;1.60;99.90;;;;;;5028830;28;20293;-56
2023/12/15 05:11:59;;;;;;;20.80;11.37;;;1.60;99.90;;;;;;5026223;28;20481;-56
2023/12/15 05:14:36;;;;;;;18.13;10.97;;;1.60;99.90;;;;;;5023621;28;20605;-54
2023/12/15 05:17:02;;;;;;;23.50;12.30;;;1.60;99.90;;;;;;5029487;28;20175;-60
2023/12/15 05:19:29;;;;;;;20.03;10.73;;;1.70;99.90;;;;;;5029957;28;20461;-60
2023/12/15 05:21:54;;;;;;;18.33;10.47;;;1.70;99.90;;;;;;5024404;28;21007;-56
2023/12/15 05:24:20;;;;;;;22.27;12.60;;;1.70;99.90;;;;;;5021357;28;20168;-57
2023/12/15 05:26:46;;;;;;;14.10;10.57;;;1.80;99.90;;;;;;5023135;28;20195;-57
2023/12/15 05:29:12;;;;;;;18.07;12.50;;;1.80;99.90;;;;;;5031538;28;20650;-58
2023/12/15 05:31:37;;;;;;;20.13;10.57;;;1.80;99.90;;;;;;5028654;28;20199;-60
2023/12/15 05:34:05;;;;;;;20.63;12.07;;;1.70;99.90;;;;;;5025811;28;20179;-57
2023/12/15 05:36:31;;;;;;;23.00;12.17;;;1.70;99.90;;;;;;5033369;28;20574;-58
2023/12/15 05:39:04;;;;;;;20.70;10.77;;;1.80;99.90;;;;;;5023051;28;20415;-56
2023/12/15 05:41:30;;;;;;;21.63;10.53;;;1.80;99.90;;;;;;5024601;28;20192;-60
2023/12/15 05:43:56;;;;;;;20.27;10.20;;;1.80;99.90;;;;;;5025936;28;20501;-57
2023/12/15 05:46:21;;;;;;;16.57;10.17;;;1.70;99.90;;;;;;5025659;28;20194;-56
2023/12/15 05:48:47;;;;;;;22.03;11.63;;;1.70;99.90;;;;;;5032090;28;20442;-55
2023/12/15 05:51:15;;;;;;;16.60;9.07;;;1.70;99.90;;;;;;5025249;28;20191;-58
2023/12/15 05:53:41;;;;;;;16.80;9.77;;;1.70;99.90;;;;;;5029371;28;20180;-59
2023/12/15 05:56:07;;;;;;;16.37;8.97;;;1.60;99.90;;;;;;5022602;28;20412;-58
2023/12/15 05:58:33;;;;;;;19.00;10.50;;;1.70;99.90;;;;;;5024170;28;20223;-57
2023/12/15 06:00:59;;;;;;;17.47;9.57;;;1.80;99.90;;;;;;5026942;28;21079;-58
2023/12/15 06:03:25;;;;;;;18.13;12.27;;;1.60;99.90;;;;;;5024300;28;20502;-55
2023/12/15 06:05:50;;;;;;;16.17;9.20;;;1.80;99.90;;;;;;5029848;28;20181;-59
2023/12/15 06:08:16;;;;;;;13.80;9.97;;;1.80;99.90;;;;;;5022112;28;20567;-60
2023/12/15 06:10:42;;;;;;;14.60;7.83;;;1.80;99.90;;;;;;5021530;28;20208;-59
2023/12/15 06:13:07;;;;;;;17.53;9.53;;;1.70;99.90;;;;;;5027470;28;20179;-58
2023/12/15 06:15:33;;;;;;;17.97;10.83;;;1.80;99.90;;;;;;5023795;28;20176;-57
2023/12/15 06:17:59;;;;;;;19.67;10.57;;;1.80;99.90;;;;;;5030697;28;20206;-61
2023/12/15 06:20:25;;;;;;;17.60;8.77;;;1.80;99.90;;;;;;5024259;28;20212;-60
2023/12/15 06:22:51;;;;;;;17.37;11.23;;;1.80;99.90;;;;;;5026842;28;20425;-62
2023/12/15 06:25:17;;;;;;;15.73;9.53;;;1.80;99.90;;;;;;5019572;28;20712;-58
2023/12/15 06:27:42;;;;;;;21.03;11.47;;;1.90;99.90;;;;;;5020951;28;20423;-58
2023/12/15 06:30:08;;;;;;;23.17;10.80;;;2.00;99.90;;;;;;5029537;28;20258;-56
2023/12/15 06:32:35;;;;;;;20.60;10.60;;;2.00;99.90;;;;;;5017265;28;20230;-58
2023/12/15 06:35:00;;;;;;;22.80;9.90;;;2.00;99.90;;;;;;5030405;28;20817;-57
2023/12/15 06:37:26;;;;;;;20.33;11.00;;;2.00;99.90;;;;;;5017044;28;20442;-56
2023/12/15 06:39:51;;;;;;;26.93;11.30;;;2.00;99.90;;;;;;5021655;28;20210;-55
2023/12/15 06:42:17;;;;;;;20.30;11.20;;;2.00;99.90;;;;;;5025854;28;20674;-57
2023/12/15 06:44:42;;;;;;;17.93;10.10;;;2.00;99.90;;;;;;5026919;28;20192;-54
2023/12/15 06:47:08;;;;;;;23.00;12.87;;;2.10;99.90;;;;;;5017373;28;20250;-53
2023/12/15 06:49:34;;;;;;;20.77;12.23;;;2.10;99.90;;;;;;5023733;28;20201;-58
2023/12/15 06:52:00;;;;;;;20.30;12.20;;;2.10;99.90;;;;;;5027200;28;20187;-60
2023/12/15 06:54:25;;;;;;;24.10;12.40;;;2.20;99.90;;;;;;5029878;28;20544;-59
2023/12/15 06:56:51;;;;;;;24.90;13.43;;;2.20;99.90;;;;;;5022894;28;20418;-58
2023/12/15 06:59:17;;;;;;;18.97;12.33;;;2.30;99.90;;;;;;5028197;28;20608;-57
2023/12/15 07:01:42;;;;;;;20.40;12.87;;;2.30;99.90;;;;;;5015463;28;20204;-55
2023/12/15 07:04:08;;;;;;;29.40;16.63;;;2.50;99.90;;;;;;5027572;28;20175;-60
2023/12/15 07:06:33;;;;;;;23.53;13.67;;;2.50;99.90;;;;;;5021065;28;20245;-60
2023/12/15 07:08:59;;;;;;;28.53;17.30;;;2.50;99.90;;;;;;5021707;28;20187;-60
2023/12/15 07:11:25;;;;;;;29.33;16.83;;;2.50;99.90;;;;;;5031123;28;20199;-56
2023/12/15 07:13:50;;;;;;;26.70;15.87;;;2.50;99.90;;;;;;5018236;28;20267;-52
2023/12/15 07:16:16;;;;;;;28.53;16.93;;;2.50;99.90;;;;;;5026834;28;20211;-54
2023/12/15 07:18:43;;;;;;;30.10;17.00;;;2.50;99.90;;;;;;5032094;28;20171;-53
2023/12/15 07:21:08;;;;;;;24.80;14.60;;;2.50;99.90;;;;;;5027275;28;20465;-56
2023/12/15 07:23:34;;;;;;;26.37;17.10;;;2.60;99.90;;;;;;5034447;28;20491;-57
2023/12/15 07:26:00;;;;;;;30.60;17.10;;;2.60;99.90;;;;;;5021061;28;20186;-56
2023/12/15 07:28:26;;;;;;;25.23;14.70;;;2.70;99.90;;;;;;5021388;28;20198;-55
2023/12/15 07:30:51;;;;;;;26.43;13.30;;;2.70;99.90;;;;;;5027973;28;20470;-56
2023/12/15 07:33:17;;;;;;;27.00;16.00;;;2.70;99.90;;;;;;5035177;28;20179;-58
2023/12/15 07:35:42;;;;;;;34.03;16.63;;;2.70;99.90;;;;;;5029009;28;20188;-56
2023/12/15 07:38:09;;;;;;;43.27;17.00;;;2.70;99.90;;;;;;5028537;28;20661;-55
2023/12/15 07:40:35;;;;;;;33.90;17.10;;;2.70;99.90;;;;;;5027805;28;20216;-53
2023/12/15 07:43:00;;;;;;;25.83;14.03;;;2.70;99.90;;;;;;5028546;28;20415;-55
2023/12/15 07:45:26;;;;;;;35.03;17.50;;;2.70;99.90;;;;;;5034743;28;20186;-60
2023/12/15 07:47:53;;;;;;;34.70;15.50;;;2.80;99.90;;;;;;5027627;28;20184;-55
2023/12/15 07:50:19;;;;;;;34.13;17.97;;;2.80;99.90;;;;;;5027529;28;20278;-56
2023/12/15 07:52:45;;;;;;;37.60;16.67;;;2.80;99.90;;;;;;5028719;28;20617;-56
2023/12/15 07:55:11;;;;;;;34.77;16.97;;;2.90;99.90;;;;;;5028240;28;20409;-58
2023/12/15 07:57:36;;;;;;;33.93;15.90;;;2.90;99.90;;;;;;5031363;28;20233;-55
2023/12/15 08:00:05;;;;;;;29.10;15.37;;;2.90;99.90;;;;;;5019756;28;20439;-58
2023/12/15 08:02:31;;;;;;;33.73;16.33;;;3.00;99.90;;;;;;5032350;28;20180;-62
2023/12/15 08:04:56;;;;;;;34.70;15.90;;;3.00;99.90;;;;;;5027844;28;20780;-62
2023/12/15 08:07:22;;;;;;;39.63;16.97;;;3.00;99.90;;;;;;5029510;28;20168;-58
2023/12/15 08:09:48;;;;;;;30.37;16.50;;;3.00;99.90;;;;;;5024899;28;20195;-59
2023/12/15 08:12:13;;;;;;;30.37;15.60;;;3.00;99.90;;;;;;5031855;28;20194;-56
2023/12/15 08:14:39;;;;;;;25.03;13.60;;;3.10;99.90;;;;;;5022760;28;20203;-60
2023/12/15 08:17:04;;;;;;;27.90;13.93;;;3.20;99.90;;;;;;5026603;28;20275;-59
2023/12/15 08:19:31;;;;;;;29.83;15.53;;;3.30;99.90;;;;;;5024413;28;20207;-58
2023/12/15 08:21:58;;;;;;;33.00;15.60;;;3.30;99.90;;;;;;5025794;28;20187;-57
2023/12/15 08:24:23;;;;;;;27.20;13.70;;;3.20;99.90;;;;;;5030660;28;20419;-56
2023/12/15 08:26:49;;;;;;;27.53;15.97;;;3.30;99.90;;;;;;5022999;28;20479;-58
2023/12/15 08:29:15;;;;;;;34.77;16.53;;;3.20;99.90;;;;;;5022466;28;20257;-59
2023/12/15 08:31:41;;;;;;;26.10;15.27;;;3.30;99.90;;;;;;5023428;28;20959;-58
2023/12/15 08:34:06;;;;;;;35.33;18.87;;;3.30;99.90;;;;;;5023731;28;20172;-58
2023/12/15 08:36:32;;;;;;;31.93;16.20;;;3.30;99.90;;;;;;5029555;28;20579;-59
2023/12/15 08:38:57;;;;;;;31.07;18.03;;;3.30;99.90;;;;;;5024301;28;20184;-60
2023/12/15 08:41:23;;;;;;;32.67;17.83;;;3.40;99.90;;;;;;5031269;28;20629;-58
2023/12/15 08:43:48;;;;;;;28.00;15.37;;;3.30;99.90;;;;;;5022540;28;20250;-59
2023/12/15 08:46:14;;;;;;;33.40;16.97;;;3.30;99.90;;;;;;5032373;28;20516;-58
2023/12/15 08:48:39;;;;;;;34.10;17.67;;;3.40;99.90;;;;;;5026445;28;20198;-59
2023/12/15 08:51:05;;;;;;;32.80;16.97;;;3.40;99.90;;;;;;5022432;28;20308;-58
2023/12/15 08:53:30;;;;;;;32.23;17.03;;;3.40;99.90;;;;;;5023560;28;20202;-58
2023/12/15 08:55:56;;;;;;;35.60;17.37;;;3.30;99.90;;;;;;5024914;28;20271;-60
2023/12/15 08:58:23;;;;;;;27.03;17.70;;;3.40;99.90;;;;;;5029543;28;20179;-60
2023/12/15 09:00:52;;;;;;;30.23;14.33;;;3.40;99.90;;;;;;5017363;28;20473;-56
2023/12/15 09:03:21;;;;;;;36.43;17.30;;;3.50;99.90;;;;;;5028721;28;20464;-60
2023/12/15 09:05:51;;;;;;;27.70;15.93;;;3.50;99.90;;;;;;5027589;28;20892;-56
2023/12/15 09:08:20;;;;;;;25.70;15.33;;;3.70;99.90;;;;;;5013314;28;20418;-60
2023/12/15 09:10:51;;;;;;;26.93;17.70;;;3.60;99.90;;;;;;5017307;28;20460;-58
2023/12/15 09:13:25;;;;;;;29.43;17.00;;;3.70;99.90;;;;;;5017175;28;20832;-59
2023/12/15 09:15:54;;;;;;;27.67;15.70;;;3.70;99.90;;;;;;5012832;28;20436;-58
2023/12/15 09:18:20;;;;;;;34.67;18.10;;;3.80;99.90;;;;;;5023329;28;20457;-58
2023/12/15 09:20:46;;;;;;;28.70;16.53;;;3.80;99.90;;;;;;5021884;28;20467;-57
2023/12/15 09:23:14;;;;;;;27.67;16.67;;;3.80;99.90;;;;;;5030806;28;20415;-58
2023/12/15 09:25:40;;;;;;;29.00;16.70;;;3.90;99.90;;;;;;5022920;28;20482;-58
2023/12/15 09:28:06;;;;;;;34.00;16.40;;;4.00;99.90;;;;;;5020203;28;20929;-57
2023/12/15 09:30:39;;;;;;;33.43;16.87;;;4.20;99.90;;;;;;5025369;28;20446;-55
2023/12/15 09:33:05;;;;;;;33.17;16.10;;;4.20;99.90;;;;;;5031535;28;20476;-60
2023/12/15 09:35:34;;;;;;;31.63;17.17;;;4.20;99.90;;;;;;5027439;28;20423;-60
2023/12/15 09:38:00;;;;;;;34.27;17.90;;;4.10;99.90;;;;;;5021350;28;20419;-58
2023/12/15 09:40:32;;;;;;;28.20;16.27;;;4.20;99.90;;;;;;5024534;28;20489;-58
2023/12/15 09:42:58;;;;;;;30.47;17.50;;;4.20;99.90;;;;;;5023752;28;20183;-58
2023/12/15 09:45:24;;;;;;;25.97;16.23;;;4.30;99.90;;;;;;5023077;28;20520;-58
2023/12/15 09:47:53;;;;;;;26.03;14.23;;;4.30;99.90;;;;;;5023247;28;20404;-58
2023/12/15 09:50:23;;;;;;;28.00;14.80;;;4.40;99.90;;;;;;5017487;28;20442;-52
2023/12/15 09:52:55;;;;;;;29.20;15.40;;;4.50;99.90;;;;;;5024893;28;20419;-58
2023/12/15 09:55:21;;;;;;;31.03;15.63;;;4.60;99.90;;;;;;5010003;28;20824;-58
2023/12/15 09:57:48;;;;;;;25.63;16.70;;;4.60;99.90;;;;;;5026561;28;20831;-58
2023/12/15 10:00:18;;;;;;;23.37;14.03;;;4.60;99.90;;;;;;5025165;28;20557;-57
2023/12/15 10:02:44;;;;;;;27.17;15.40;;;4.60;99.90;;;;;;5023744;28;20446;-59
2023/12/15 10:05:10;;;;;;;34.07;15.53;;;4.60;99.90;;;;;;5025673;28;20426;-58
2023/12/15 10:07:37;;;;;;;23.40;14.87;;;4.70;99.90;;;;;;5031121;28;20468;-57
2023/12/15 10:10:03;;;;;;;23.90;15.57;;;4.70;99.90;;;;;;5022066;28;20933;-58
2023/12/15 10:12:32;;;;;;;30.73;14.80;;;4.60;99.90;;;;;;5028304;28;20920;-53
2023/12/15 10:15:01;;;;;;;22.23;14.43;;;4.60;99.90;;;;;;5025575;28;20426;-61
2023/12/15 10:17:30;;;;;;;29.33;17.27;;;4.70;99.90;;;;;;5029018;28;20437;-56
2023/12/15 10:20:13;;;;;;;21.10;13.70;;;4.70;99.90;;;;;;5023391;28;20470;-57
2023/12/15 10:22:41;;;;;;;20.70;13.07;;;4.50;99.90;;;;;;5025068;28;20789;-57
2023/12/15 10:25:36;;;;;;;19.93;13.47;;;4.70;99.90;;;;;;5026553;28;20437;-55
2023/12/15 10:28:07;;;;;;;27.67;15.20;;;4.60;99.90;;;;;;5005724;28;20436;-59
2023/12/15 10:30:38;;;;;;;26.37;14.43;;;4.50;99.90;;;;;;5024304;28;20435;-58
2023/12/15 10:33:17;;;;;;;23.80;13.30;;;4.70;99.90;;;;;;5030014;28;20437;-59
2023/12/15 10:35:49;;;;;;;25.67;14.10;;;4.70;99.90;;;;;;5023523;28;20925;-57
2023/12/15 10:38:20;;;;;;;26.53;15.13;;;4.60;99.90;;;;;;5023631;28;20406;-59
2023/12/15 10:40:58;;;;;;;27.03;15.07;;;4.70;99.90;;;;;;5026121;28;20517;-57
2023/12/15 10:43:37;;;;;;;24.37;12.90;;;4.70;99.90;;;;;;5017620;28;20476;-59
2023/12/15 10:46:07;;;;;;;25.77;14.87;;;4.60;99.90;;;;;;5015904;28;20442;-56
2023/12/15 10:48:37;;;;;;;27.13;17.97;;;4.70;99.90;;;;;;5023541;28;20450;-56
2023/12/15 10:51:10;;;;;;;28.10;16.30;;;4.70;99.90;;;;;;5027879;28;20434;-58
2023/12/15 10:53:41;;;;;;;29.53;14.93;;;4.70;99.90;;;;;;5025787;28;20486;-55
2023/12/15 10:56:14;;;;;;;23.30;13.63;;;4.80;99.90;;;;;;5021017;28;20847;-54
2023/12/15 10:58:44;;;;;;;20.43;12.77;;;4.80;99.90;;;;;;5026723;28;21024;-51
2023/12/15 11:01:14;;;;;;;23.40;14.17;;;4.70;99.90;;;;;;5022538;28;20462;-56
2023/12/15 11:03:41;;;;;;;25.13;13.83;;;4.70;99.90;;;;;;5022315;28;20444;-56
2023/12/15 11:06:13;;;;;;;21.23;12.17;;;4.70;99.90;;;;;;5023029;28;20419;-52
2023/12/15 11:08:40;;;;;;;22.87;13.53;;;4.70;99.90;;;;;;5017440;28;20423;-58
2023/12/15 11:11:20;;;;;;;24.40;13.17;;;4.80;99.90;;;;;;5027947;28;20446;-57
2023/12/15 11:14:04;;;;;;;23.87;14.40;;;4.80;99.90;;;;;;5021987;28;20513;-59
2023/12/15 11:16:35;;;;;;;22.37;13.87;;;4.70;99.90;;;;;;5025003;28;20418;-64
2023/12/15 11:19:01;;;;;;;25.57;13.37;;;4.80;99.90;;;;;;5020427;28;20859;-64
2023/12/15 11:21:28;;;;;;;26.10;14.57;;;4.80;99.90;;;;;;5024641;28;20474;-59
2023/12/15 11:24:02;;;;;;;24.30;13.37;;;4.80;99.90;;;;;;5024637;28;20419;-57
2023/12/15 11:26:46;;;;;;;22.30;13.97;;;4.70;99.90;;;;;;5010377;28;20410;-56
2023/12/15 11:29:16;;;;;;;22.87;12.43;;;4.70;99.90;;;;;;5014849;28;20446;-62
2023/12/15 11:31:53;;;;;;;24.80;15.40;;;4.70;99.90;;;;;;5024853;28;20430;-63
2023/12/15 11:34:42;;;;;;;21.73;13.07;;;4.60;99.90;;;;;;5030507;28;20415;-61
2023/12/15 11:37:12;;;;;;;24.30;14.13;;;4.50;99.90;;;;;;5026230;28;20426;-59
2023/12/15 11:39:41;;;;;;;18.53;12.57;;;4.60;99.90;;;;;;5028786;28;20453;-62
2023/12/15 11:42:18;;;;;;;24.83;14.60;;;4.50;99.90;;;;;;5025494;28;20831;-57
2023/12/15 11:44:47;;;;;;;32.40;14.80;;;4.50;99.90;;;;;;5021262;28;20441;-59
2023/12/15 11:47:13;;;;;;;22.80;13.53;;;4.60;99.90;;;;;;5021136;28;20426;-60
2023/12/15 11:49:42;;;;;;;26.83;15.20;;;4.40;99.90;;;;;;5003273;28;20411;-59
2023/12/15 11:52:15;;;;;;;25.67;15.20;;;4.50;99.90;;;;;;5022635;28;20446;-61
2023/12/15 11:54:41;;;;;;;23.43;13.43;;;4.50;99.90;;;;;;5015668;28;20475;-61
2023/12/15 11:57:16;;;;;;;29.30;14.80;;;4.60;99.90;;;;;;5022746;28;20418;-59
2023/12/15 11:59:44;;;;;;;25.33;13.63;;;4.60;99.90;;;;;;5016493;28;20454;-58
2023/12/15 12:02:16;;;;;;;25.70;12.93;;;4.60;99.90;;;;;;5023799;28;20419;-63
2023/12/15 12:04:50;;;;;;;26.03;14.70;;;4.50;99.90;;;;;;5012292;28;20438;-54
2023/12/15 12:07:21;;;;;;;25.23;13.97;;;4.50;99.90;;;;;;5026501;28;20498;-58
2023/12/15 12:09:47;;;;;;;26.97;14.87;;;4.60;99.90;;;;;;5020668;28;20422;-54
2023/12/15 12:12:14;;;;;;;30.60;14.43;;;4.60;99.90;;;;;;5024298;28;20415;-54
2023/12/15 12:14:43;;;;;;;34.93;18.63;;;4.60;99.90;;;;;;5027307;28;20449;-55
2023/12/15 12:17:13;;;;;;;29.13;15.53;;;4.70;99.90;;;;;;5028645;28;20421;-59
2023/12/15 12:19:45;;;;;;;30.30;17.17;;;4.70;99.90;;;;;;5025737;28;20458;-53
2023/12/15 12:22:32;;;;;;;28.30;14.23;;;4.70;99.90;;;;;;5027355;28;20430;-60
2023/12/15 12:25:04;;;;;;;25.37;13.70;;;4.60;99.90;;;;;;5025311;28;20499;-60
2023/12/15 12:28:01;;;;;;;31.00;15.90;;;4.70;99.90;;;;;;5017210;28;20425;-61
2023/12/15 12:30:36;;;;;;;30.60;16.23;;;4.70;99.90;;;;;;5012504;28;20654;-59
2023/12/15 12:33:05;;;;;;;30.47;16.53;;;4.60;99.90;;;;;;5028966;28;20414;-56
2023/12/15 12:35:31;;;;;;;34.33;17.50;;;4.60;99.90;;;;;;5027518;28;20422;-57
2023/12/15 12:37:58;;;;;;;31.00;16.10;;;4.50;99.90;;;;;;5029228;28;20463;-59
2023/12/15 12:40:24;;;;;;;34.70;16.00;;;4.50;99.90;;;;;;5028896;28;20518;-59